createdAt,value
2018-01-16T00:02:06.459Z,7.00
2018-01-16T00:04:35.857Z,7.60
2018-01-16T00:07:04.798Z,6.53
2018-01-16T00:09:40.690Z,5.80
2018-01-16T00:12:09.642Z,5.95
2018-01-16T00:14:39.366Z,6.18
2018-01-16T00:17:09.125Z,5.85
2018-01-16T00:19:38.071Z,6.30
2018-01-16T00:22:07.791Z,6.90
2018-01-16T00:24:36.792Z,5.57
2018-01-16T00:27:05.895Z,5.93
2018-01-16T00:29:59.712Z,6.37
2018-01-16T00:32:29.759Z,5.90
2018-01-16T00:34:58.855Z,6.22
2018-01-16T00:37:27.894Z,5.90
2018-01-16T00:39:56.850Z,6.57
2018-01-16T00:42:29.138Z,4.97
2018-01-16T00:44:58.094Z,6.12
2018-01-16T00:47:27.546Z,5.45
2018-01-16T00:49:56.498Z,4.57
2018-01-16T00:52:25.463Z,4.37
2018-01-16T00:54:55.158Z,4.10
2018-01-16T00:57:24.143Z,7.78
2018-01-16T00:59:54.021Z,4.35
2018-01-16T01:02:22.963Z,4.30
2018-01-16T01:04:51.929Z,3.78
2018-01-16T01:07:21.826Z,3.30
2018-01-16T01:09:51.051Z,3.28
2018-01-16T01:12:20.694Z,3.05
2018-01-16T01:14:49.658Z,3.30
2018-01-16T01:17:18.598Z,3.33
2018-01-16T01:19:47.565Z,3.22
2018-01-16T01:22:17.279Z,3.17
2018-01-16T01:24:47.008Z,2.60
2018-01-16T01:27:15.964Z,2.67
2018-01-16T01:29:49.530Z,2.85
2018-01-16T01:32:18.478Z,2.62
2018-01-16T01:34:48.210Z,2.65
2018-01-16T01:37:17.157Z,2.50
2018-01-16T01:39:46.126Z,2.40
2018-01-16T01:42:15.180Z,2.30
2018-01-16T01:44:44.922Z,2.42
2018-01-16T01:47:20.409Z,2.72
2018-01-16T01:49:50.166Z,2.70
2018-01-16T01:52:19.117Z,2.90
2018-01-16T01:54:48.842Z,1.90
2018-01-16T01:57:17.815Z,2.37
2018-01-16T01:59:47.522Z,2.40
2018-01-16T02:02:17.255Z,1.98
2018-01-16T02:04:46.211Z,2.28
2018-01-16T02:07:15.170Z,2.33
2018-01-16T02:09:44.106Z,1.90
2018-01-16T02:12:13.842Z,2.20
2018-01-16T02:14:42.779Z,2.00
2018-01-16T02:17:11.751Z,2.58
2018-01-16T02:19:41.636Z,1.98
2018-01-16T02:22:10.600Z,1.90
2018-01-16T02:24:39.558Z,2.08
2018-01-16T02:27:08.517Z,1.60
2018-01-16T02:29:37.478Z,1.50
2018-01-16T02:32:07.194Z,2.72
2018-01-16T02:34:36.927Z,1.70
2018-01-16T02:37:05.889Z,1.50
2018-01-16T02:39:34.830Z,1.60
2018-01-16T02:42:03.951Z,1.40
2018-01-16T02:44:32.893Z,1.85
2018-01-16T02:47:01.844Z,1.70
2018-01-16T02:49:30.802Z,1.25
2018-01-16T02:51:59.754Z,2.62
2018-01-16T02:54:29.482Z,1.62
2018-01-16T02:56:58.428Z,1.40
2018-01-16T02:59:27.395Z,1.00
2018-01-16T03:01:56.342Z,2.08
2018-01-16T03:04:26.074Z,1.27
2018-01-16T03:06:55.018Z,1.20
2018-01-16T03:09:23.986Z,1.00
2018-01-16T03:11:52.944Z,1.17
2018-01-16T03:14:21.903Z,0.90
2018-01-16T03:16:50.846Z,0.90
2018-01-16T03:19:21.786Z,1.02
2018-01-16T03:21:50.733Z,1.10
2018-01-16T03:24:20.629Z,0.90
2018-01-16T03:26:49.578Z,0.90
2018-01-16T03:29:18.530Z,1.10
2018-01-16T03:31:47.491Z,0.90
2018-01-16T03:34:16.435Z,0.80
2018-01-16T03:36:45.409Z,1.00
2018-01-16T03:39:15.113Z,0.80
2018-01-16T03:41:44.834Z,0.80
2018-01-16T03:44:14.558Z,1.20
2018-01-16T03:46:43.517Z,1.23
2018-01-16T03:49:12.467Z,1.00
2018-01-16T03:51:41.558Z,1.20
2018-01-16T03:54:10.506Z,0.80
2018-01-16T03:56:40.226Z,0.98
2018-01-16T03:59:09.954Z,0.90
2018-01-16T04:01:38.896Z,0.80
2018-01-16T04:04:07.976Z,1.12
2018-01-16T04:06:36.886Z,0.80
2018-01-16T04:09:05.854Z,0.80
2018-01-16T04:11:34.799Z,2.35
2018-01-16T04:14:04.531Z,0.93
2018-01-16T04:16:33.522Z,0.82
2018-01-16T04:19:02.505Z,2.20
2018-01-16T04:21:32.318Z,2.87
2018-01-16T04:24:01.258Z,1.00
2018-01-16T04:26:32.158Z,1.65
2018-01-16T04:29:01.103Z,1.83
2018-01-16T04:31:30.063Z,1.20
2018-01-16T04:33:59.006Z,0.98
2018-01-16T04:36:28.745Z,1.20
2018-01-16T04:38:57.703Z,0.90
2018-01-16T04:41:27.434Z,1.10
2018-01-16T04:43:56.378Z,1.25
2018-01-16T04:46:25.354Z,1.20
2018-01-16T04:48:54.299Z,1.20
2018-01-16T04:51:23.258Z,0.90
2018-01-16T04:53:52.222Z,1.27
2018-01-16T04:56:21.181Z,0.90
2018-01-16T04:58:50.302Z,1.52
2018-01-16T05:01:19.246Z,1.42
2018-01-16T05:03:54.744Z,2.12
2018-01-16T05:06:23.687Z,1.50
2018-01-16T05:08:53.413Z,1.30
2018-01-16T05:11:22.374Z,0.90
2018-01-16T05:13:51.316Z,0.90
2018-01-16T05:16:20.281Z,0.90
2018-01-16T05:18:49.242Z,0.90
2018-01-16T05:21:18.202Z,1.00
2018-01-16T05:24:04.398Z,0.80
2018-01-16T05:26:33.370Z,2.42
2018-01-16T05:29:02.338Z,1.20
2018-01-16T05:31:32.118Z,2.40
2018-01-16T05:34:01.062Z,1.12
2018-01-16T05:36:30.030Z,1.12
2018-01-16T05:38:59.734Z,1.83
2018-01-16T05:41:30.402Z,1.37
2018-01-16T05:43:59.346Z,0.90
2018-01-16T05:46:28.398Z,0.95
2018-01-16T05:48:57.337Z,1.67
2018-01-16T05:51:26.295Z,0.80
2018-01-16T05:54:01.128Z,0.80
2018-01-16T05:56:30.066Z,1.10
2018-01-16T05:58:59.797Z,1.10
2018-01-16T06:01:34.523Z,0.80
2018-01-16T06:04:03.483Z,2.37
2018-01-16T06:06:33.194Z,1.20
2018-01-16T06:09:02.927Z,1.45
2018-01-16T06:11:32.971Z,1.35
2018-01-16T06:14:08.476Z,1.55
2018-01-16T06:16:37.529Z,1.40
2018-01-16T06:19:06.828Z,2.12
2018-01-16T06:21:38.677Z,1.70
2018-01-16T06:24:09.119Z,1.12
2018-01-16T06:26:38.676Z,1.20
2018-01-16T06:29:07.876Z,1.00
2018-01-16T06:31:37.280Z,1.62
2018-01-16T06:34:07.050Z,2.50
2018-01-16T06:36:38.895Z,1.35
2018-01-16T06:39:09.121Z,1.65
2018-01-16T06:41:38.298Z,1.20
2018-01-16T06:44:07.627Z,1.00
2018-01-16T06:46:36.979Z,0.90
2018-01-16T06:49:06.090Z,1.08
2018-01-16T06:51:35.168Z,1.00
2018-01-16T06:54:04.260Z,1.23
2018-01-16T06:56:37.014Z,1.85
2018-01-16T06:59:07.953Z,1.33
2018-01-16T07:01:37.824Z,2.65
2018-01-16T07:04:07.906Z,2.22
2018-01-16T07:06:36.871Z,2.30
2018-01-16T07:09:05.811Z,1.08
2018-01-16T07:11:34.828Z,2.75
2018-01-16T07:14:03.762Z,2.37
2018-01-16T07:16:32.702Z,1.12
2018-01-16T07:19:01.674Z,1.00
2018-01-16T07:21:30.662Z,1.75
2018-01-16T07:23:59.606Z,1.10
2018-01-16T07:26:28.549Z,0.90
2018-01-16T07:28:57.524Z,0.95
2018-01-16T07:31:26.466Z,1.87
2018-01-16T07:33:55.433Z,0.80
2018-01-16T07:36:24.374Z,0.80
2018-01-16T07:38:54.108Z,1.05
2018-01-16T07:41:23.046Z,1.00
2018-01-16T07:43:52.019Z,1.00
2018-01-16T07:46:20.995Z,1.00
2018-01-16T07:48:50.070Z,1.10
2018-01-16T07:51:19.018Z,1.05
2018-01-16T07:53:47.964Z,1.35
2018-01-16T07:56:16.932Z,1.00
2018-01-16T07:58:46.642Z,1.62
2018-01-16T08:01:16.385Z,2.17
2018-01-16T08:03:45.325Z,1.20
2018-01-16T08:06:14.319Z,1.50
2018-01-16T08:08:43.265Z,2.25
2018-01-16T08:11:12.234Z,2.65
2018-01-16T08:13:41.181Z,0.85
2018-01-16T08:16:10.269Z,0.98
2018-01-16T08:18:39.216Z,0.90
2018-01-16T08:21:08.168Z,0.77
2018-01-16T08:23:37.134Z,1.10
2018-01-16T08:26:06.087Z,0.98
2018-01-16T08:28:35.071Z,0.80
2018-01-16T08:31:04.790Z,2.42
2018-01-16T08:33:33.790Z,0.93
2018-01-16T08:36:02.738Z,0.80
2018-01-16T08:38:31.705Z,0.75
2018-01-16T08:41:00.659Z,0.80
2018-01-16T08:43:29.630Z,0.90
2018-01-16T08:45:59.338Z,2.75
2018-01-16T08:48:28.314Z,0.80
2018-01-16T08:50:57.255Z,2.65
2018-01-16T08:53:26.344Z,0.80
2018-01-16T08:55:55.302Z,0.70
2018-01-16T08:58:24.248Z,0.70
2018-01-16T09:00:53.218Z,1.00
2018-01-16T09:03:22.177Z,0.75
2018-01-16T09:05:51.131Z,0.70
2018-01-16T09:08:20.094Z,0.90
2018-01-16T09:10:49.042Z,0.70
2018-01-16T09:13:18.014Z,0.70
2018-01-16T09:15:46.957Z,0.77
2018-01-16T09:18:16.667Z,0.80
2018-01-16T09:20:46.403Z,0.70
2018-01-16T09:23:15.346Z,3.67
2018-01-16T09:25:44.310Z,1.17
2018-01-16T09:28:13.262Z,0.73
2018-01-16T09:30:42.223Z,0.90
2018-01-16T09:33:11.174Z,2.53
2018-01-16T09:35:40.145Z,2.67
2018-01-16T09:38:09.090Z,1.15
2018-01-16T09:40:38.054Z,2.95
2018-01-16T09:43:07.002Z,0.95
2018-01-16T09:45:36.747Z,0.80
2018-01-16T09:48:29.793Z,2.00
2018-01-16T09:50:58.758Z,0.90
2018-01-16T09:53:28.470Z,0.90
2018-01-16T09:55:58.202Z,1.33
2018-01-16T09:58:27.142Z,1.50
2018-01-16T10:00:56.119Z,0.80
2018-01-16T10:03:25.073Z,0.80
2018-01-16T10:05:54.038Z,2.45
2018-01-16T10:08:23.760Z,0.80
2018-01-16T10:10:53.490Z,0.80
2018-01-16T10:13:22.435Z,0.80
2018-01-16T10:15:51.401Z,0.80
2018-01-16T10:18:20.358Z,0.88
2018-01-16T10:20:49.330Z,2.45
2018-01-16T10:23:19.049Z,1.20
2018-01-16T10:25:49.012Z,0.80
2018-01-16T10:28:17.966Z,2.90
2018-01-16T10:30:46.935Z,1.10
2018-01-16T10:33:15.878Z,0.97
2018-01-16T10:35:44.856Z,3.67
2018-01-16T10:38:13.776Z,1.67
2018-01-16T10:40:42.730Z,0.83
2018-01-16T10:43:11.684Z,0.80
2018-01-16T10:45:40.765Z,1.00
2018-01-16T10:48:09.710Z,0.90
2018-01-16T10:50:38.656Z,1.53
2018-01-16T10:53:07.618Z,1.00
2018-01-16T10:55:36.570Z,0.80
2018-01-16T10:58:05.538Z,1.10
2018-01-16T11:00:34.477Z,1.87
2018-01-16T11:03:03.455Z,1.30
2018-01-16T11:05:32.394Z,2.65
2018-01-16T11:08:01.378Z,2.20
2018-01-16T11:10:30.334Z,1.10
2018-01-16T11:12:59.294Z,3.87
2018-01-16T11:15:28.234Z,1.50
2018-01-16T11:17:57.214Z,8.93
2018-01-16T11:20:26.167Z,3.78
2018-01-16T11:22:55.896Z,0.80
2018-01-16T11:25:45.678Z,1.50
2018-01-16T11:28:14.662Z,0.80
2018-01-16T11:30:44.387Z,0.80
2018-01-16T11:33:13.332Z,0.80
2018-01-16T11:35:42.294Z,0.80
2018-01-16T11:38:11.246Z,1.52
2018-01-16T11:40:40.977Z,0.90
2018-01-16T11:43:09.934Z,1.23
2018-01-16T11:45:38.923Z,0.90
2018-01-16T11:48:07.866Z,1.37
2018-01-16T11:50:36.838Z,0.70
2018-01-16T11:53:05.782Z,0.75
2018-01-16T11:55:34.750Z,1.10
2018-01-16T11:58:03.698Z,0.80
2018-01-16T12:00:32.672Z,0.90
2018-01-16T12:03:01.620Z,0.80
2018-01-16T12:05:30.595Z,2.05
2018-01-16T12:07:59.564Z,0.80
2018-01-16T12:10:29.300Z,0.73
2018-01-16T12:12:58.235Z,1.27
2018-01-16T12:15:27.213Z,0.90
2018-01-16T12:17:56.163Z,1.10
2018-01-16T12:20:25.895Z,1.12
2018-01-16T12:22:54.846Z,0.85
2018-01-16T12:25:35.226Z,0.80
2018-01-16T12:28:04.171Z,0.80
2018-01-16T12:30:33.179Z,0.70
2018-01-16T12:33:19.126Z,0.90
2018-01-16T12:35:48.097Z,1.05
2018-01-16T12:38:17.038Z,1.30
2018-01-16T12:40:46.003Z,0.93
2018-01-16T12:43:14.955Z,0.80
2018-01-16T12:45:44.838Z,1.00
2018-01-16T12:48:13.786Z,0.80
2018-01-16T12:50:51.271Z,0.90
2018-01-16T12:53:20.319Z,0.90
2018-01-16T12:55:49.851Z,1.75
2018-01-16T12:58:19.594Z,0.90
2018-01-16T13:00:48.546Z,0.80
2018-01-16T13:03:38.386Z,1.00
2018-01-16T13:06:07.348Z,0.70
2018-01-16T13:08:36.367Z,1.00
2018-01-16T13:11:05.334Z,1.17
2018-01-16T13:13:34.298Z,1.08
2018-01-16T13:16:03.240Z,2.00
2018-01-16T13:18:32.194Z,1.80
2018-01-16T13:21:01.903Z,1.40
2018-01-16T13:23:31.634Z,2.25
2018-01-16T13:26:00.586Z,1.15
2018-01-16T13:28:29.549Z,1.08
2018-01-16T13:30:58.489Z,1.20
2018-01-16T13:33:28.210Z,1.10
2018-01-16T13:35:57.175Z,1.30
2018-01-16T13:38:26.134Z,1.20
2018-01-16T13:40:55.083Z,0.93
2018-01-16T13:43:24.053Z,0.90
2018-01-16T13:45:52.986Z,1.10
2018-01-16T13:48:21.951Z,1.15
2018-01-16T13:50:51.662Z,1.37
2018-01-16T13:53:21.391Z,1.48
2018-01-16T13:55:50.330Z,1.10
2018-01-16T13:58:19.290Z,2.17
2018-01-16T14:00:48.232Z,2.35
2018-01-16T14:03:17.170Z,1.17
2018-01-16T14:05:46.130Z,0.70
2018-01-16T14:08:15.838Z,0.90
2018-01-16T14:10:45.559Z,3.10
2018-01-16T14:13:14.499Z,1.73
2018-01-16T14:15:43.458Z,1.42
2018-01-16T14:18:12.399Z,1.02
2018-01-16T14:20:41.360Z,0.90
2018-01-16T14:23:10.305Z,1.23
2018-01-16T14:25:39.386Z,1.15
2018-01-16T14:28:08.330Z,1.15
2018-01-16T14:30:37.275Z,1.10
2018-01-16T14:33:07.007Z,1.35
2018-01-16T14:35:35.942Z,1.27
2018-01-16T14:38:04.906Z,2.05
2018-01-16T14:40:33.842Z,5.40
2018-01-16T14:43:02.803Z,1.08
2018-01-16T14:45:31.745Z,1.00
2018-01-16T14:48:01.786Z,1.00
2018-01-16T14:50:30.752Z,2.72
2018-01-16T14:52:59.705Z,1.70
2018-01-16T14:55:28.654Z,1.90
2018-01-16T14:57:57.618Z,1.00
2018-01-16T15:00:26.559Z,1.50
2018-01-16T15:02:55.556Z,1.37
2018-01-16T15:05:24.519Z,1.05
2018-01-16T15:07:54.234Z,3.05
2018-01-16T15:10:23.194Z,1.80
2018-01-16T15:12:52.203Z,1.55
2018-01-16T15:15:21.317Z,2.37
2018-01-16T15:17:51.011Z,1.45
2018-01-16T15:20:20.734Z,2.00
2018-01-16T15:22:49.673Z,1.10
2018-01-16T15:25:18.743Z,1.30
2018-01-16T15:27:47.716Z,1.42
2018-01-16T15:30:16.796Z,1.48
2018-01-16T15:32:46.527Z,1.45
2018-01-16T15:35:15.481Z,2.28
2018-01-16T15:37:44.486Z,1.27
2018-01-16T15:40:14.199Z,1.30
2018-01-16T15:42:43.930Z,1.30
2018-01-16T15:45:13.318Z,1.15
2018-01-16T15:47:43.085Z,1.25
2018-01-16T15:50:12.023Z,1.80
2018-01-16T15:52:40.981Z,1.77
2018-01-16T15:55:09.932Z,1.95
2018-01-16T15:57:38.886Z,3.15
2018-01-16T16:00:08.598Z,1.52
2018-01-16T16:02:38.330Z,3.50
2018-01-16T16:05:07.288Z,2.50
2018-01-16T16:07:36.245Z,1.55
2018-01-16T16:10:05.185Z,3.12
2018-01-16T16:12:34.910Z,1.45
2018-01-16T16:15:03.852Z,1.52
2018-01-16T16:17:32.823Z,2.00
2018-01-16T16:20:01.767Z,3.37
2018-01-16T16:22:31.478Z,4.12
2018-01-16T16:25:01.202Z,2.58
2018-01-16T16:27:30.148Z,1.80
2018-01-16T16:29:59.125Z,1.45
2018-01-16T16:32:28.315Z,1.45
2018-01-16T16:35:09.961Z,3.85
2018-01-16T16:37:50.011Z,3.53
2018-01-16T16:40:19.786Z,3.12
2018-01-16T16:42:48.847Z,1.60
2018-01-16T16:45:17.803Z,2.40
2018-01-16T16:47:47.587Z,3.12
2018-01-16T16:50:16.671Z,3.00
2018-01-16T16:52:45.591Z,1.90
2018-01-16T16:55:14.603Z,1.45
2018-01-16T16:57:43.550Z,1.42
2018-01-16T17:00:12.611Z,3.95
2018-01-16T17:02:41.542Z,1.50
2018-01-16T17:05:11.448Z,3.62
2018-01-16T17:07:40.429Z,3.80
2018-01-16T17:10:09.378Z,1.83
2018-01-16T17:12:39.098Z,10.38
2018-01-16T17:15:08.114Z,2.17
2018-01-16T17:17:37.062Z,3.20
2018-01-16T17:20:07.983Z,2.75
2018-01-16T17:22:36.927Z,4.40
2018-01-16T17:25:12.700Z,2.37
2018-01-16T17:27:41.702Z,2.03
2018-01-16T17:30:10.697Z,1.83
2018-01-16T17:32:39.634Z,1.83
2018-01-16T17:35:08.592Z,2.65
2018-01-16T17:37:37.622Z,2.22
2018-01-16T17:40:06.749Z,2.40
2018-01-16T17:42:35.704Z,5.57
2018-01-16T17:45:05.506Z,2.50
2018-01-16T17:47:35.226Z,1.55
2018-01-16T17:50:04.182Z,2.30
2018-01-16T17:52:33.138Z,2.40
2018-01-16T17:55:02.075Z,3.78
2018-01-16T17:57:31.025Z,2.55
2018-01-16T17:59:59.962Z,1.52
2018-01-16T18:02:29.689Z,4.37
2018-01-16T18:04:59.406Z,1.48
2018-01-16T18:07:28.510Z,4.05
2018-01-16T18:09:57.595Z,2.95
2018-01-16T18:12:26.568Z,2.12
2018-01-16T18:14:56.270Z,3.70
2018-01-16T18:17:25.260Z,2.40
2018-01-16T18:19:54.185Z,3.35
2018-01-16T18:22:23.135Z,3.10
2018-01-16T18:24:52.275Z,2.78
2018-01-16T18:27:22.132Z,4.32
2018-01-16T18:29:51.087Z,1.45
2018-01-16T18:32:20.065Z,3.35
2018-01-16T18:34:48.987Z,2.22
2018-01-16T18:37:17.926Z,2.40
2018-01-16T18:39:47.654Z,3.67
2018-01-16T18:42:16.602Z,1.77
2018-01-16T18:44:45.566Z,1.65
2018-01-16T18:47:14.511Z,1.20
2018-01-16T18:49:43.738Z,2.30
2018-01-16T18:52:12.648Z,5.43
2018-01-16T18:54:41.577Z,2.37
2018-01-16T18:57:10.545Z,2.20
2018-01-16T18:59:39.498Z,6.85
2018-01-16T19:02:08.458Z,5.65
2018-01-16T19:04:37.402Z,2.22
2018-01-16T19:07:06.359Z,2.10
2018-01-16T19:09:36.071Z,2.90
2018-01-16T19:12:05.802Z,5.03
2018-01-16T19:14:37.755Z,3.22
2018-01-16T19:17:06.768Z,4.68
2018-01-16T19:19:36.848Z,5.47
2018-01-16T19:22:06.196Z,5.35
2018-01-16T19:24:35.719Z,4.45
2018-01-16T19:27:06.108Z,1.80
2018-01-16T19:29:36.128Z,2.53
2018-01-16T19:32:05.322Z,2.00
2018-01-16T19:34:34.278Z,4.90
2018-01-16T19:37:03.214Z,4.57
2018-01-16T19:39:32.174Z,9.55
2018-01-16T19:42:01.878Z,6.68
2018-01-16T19:44:31.610Z,4.35
2018-01-16T19:47:04.604Z,1.40
2018-01-16T19:49:33.541Z,1.62
2018-01-16T19:52:02.506Z,2.75
2018-01-16T19:54:31.615Z,4.22
2018-01-16T19:57:01.557Z,3.53
2018-01-16T19:59:30.552Z,8.77
2018-01-16T20:02:24.328Z,8.02
2018-01-16T20:05:03.257Z,2.20
2018-01-16T20:07:46.080Z,2.95
2018-01-16T20:15:57.005Z,5.97
2018-01-16T20:18:36.800Z,7.90
2018-01-16T20:21:33.347Z,5.57
2018-01-16T20:24:10.723Z,5.87
2018-01-16T20:26:42.257Z,24.87
2018-01-16T20:29:16.461Z,20.75
2018-01-16T20:31:56.554Z,23.00
2018-01-16T20:34:36.628Z,28.50
2018-01-16T20:37:10.992Z,22.15
2018-01-16T20:39:47.502Z,15.85
2018-01-16T20:42:29.173Z,17.33
2018-01-16T20:47:47.526Z,11.98
2018-01-16T20:50:21.996Z,2.75
2018-01-16T20:52:57.390Z,2.50
2018-01-16T20:55:32.291Z,2.08
2018-01-16T20:58:12.998Z,2.15
2018-01-16T21:00:49.779Z,1.00
2018-01-16T21:06:16.936Z,1.00
2018-01-16T21:08:53.281Z,0.93
2018-01-16T21:11:32.605Z,0.95
2018-01-16T21:14:13.106Z,1.70
2018-01-16T21:16:54.692Z,1.00
2018-01-16T21:22:33.592Z,1.02
2018-01-16T21:25:08.749Z,1.10
2018-01-16T21:33:56.156Z,1.83
2018-01-16T22:14:31.053Z,3.30
2018-01-16T22:17:14.281Z,1.20
2018-01-16T22:19:50.242Z,0.80
2018-01-16T22:22:36.841Z,0.80
2018-01-16T22:25:35.958Z,0.90
2018-01-16T22:28:33.698Z,0.90
2018-01-16T22:31:14.293Z,0.82
2018-01-16T22:33:48.412Z,1.67
2018-01-16T22:36:21.254Z,1.00
2018-01-16T22:38:51.710Z,0.90
2018-01-16T22:43:59.790Z,1.10
2018-01-16T22:46:31.038Z,1.12
2018-01-16T22:49:01.105Z,1.73
2018-01-16T22:51:36.787Z,1.70
2018-01-16T22:54:06.683Z,1.25
2018-01-16T22:56:38.032Z,1.08
2018-01-16T22:59:08.359Z,1.55
2018-01-16T23:01:38.043Z,1.10
2018-01-16T23:04:08.215Z,1.10
2018-01-16T23:06:40.117Z,1.92
2018-01-16T23:09:11.379Z,1.33
2018-01-16T23:11:42.134Z,1.55
2018-01-16T23:14:17.671Z,1.15
2018-01-16T23:16:48.268Z,1.55
2018-01-16T23:19:18.634Z,1.70
2018-01-16T23:21:51.010Z,2.22
2018-01-16T23:24:21.532Z,1.65
2018-01-16T23:26:51.933Z,1.30
2018-01-16T23:29:22.579Z,1.35
2018-01-16T23:31:52.949Z,1.48
2018-01-16T23:34:22.936Z,1.65
2018-01-16T23:36:55.263Z,1.73
2018-01-16T23:39:25.473Z,1.30
2018-01-16T23:41:57.915Z,2.45
2018-01-16T23:44:31.623Z,1.30
2018-01-16T23:47:02.589Z,2.47
2018-01-16T23:49:31.665Z,1.90
2018-01-16T23:52:02.488Z,1.60
2018-01-16T23:54:34.096Z,2.03
2018-01-16T23:57:04.298Z,1.73
2018-01-16T23:59:34.701Z,1.23
